Time;durP1;ratioP1;P1;durP2;ratioP2;P2;SDS_P1;SDS_P2;PMS_P1;PMS_P2;Temp;Humidity;BMP_temperature;BMP_pressure;BME280_temperature;BME280_humidity;BME280_pressure;Samples;Min_cycle;Max_cycle;Signal;HPM_P1;HPM_P2
2022/11/05 00:16:42;;;;;;;19.37;10.83;;;13.10;89.80;;;;;;4991046;28;20837;-71
2022/11/05 00:16:58;;;;;;;19.90;10.63;;;13.10;90.00;;;;;;4990586;28;20211;-70
2022/11/05 00:19:28;;;;;;;15.73;11.17;;;13.10;90.10;;;;;;4990301;28;20711;-70
2022/11/05 00:27:27;;;;;;;18.90;11.87;;;13.00;91.40;;;;;;4989909;28;20685;-69
2022/11/05 00:29:56;;;;;;;16.40;11.47;;;12.90;91.60;;;;;;5023018;28;20213;-71
2022/11/05 00:32:24;;;;;;;18.73;11.53;;;13.00;91.90;;;;;;5013467;28;20210;-70
2022/11/05 00:34:54;;;;;;;20.77;11.90;;;12.90;92.20;;;;;;5082306;28;20210;-70
2022/11/05 00:37:22;;;;;;;15.90;11.07;;;12.90;92.70;;;;;;5109880;28;20202;-69
2022/11/05 00:39:50;;;;;;;18.93;11.93;;;12.90;92.70;;;;;;5116572;27;20236;-71
2022/11/05 00:45:07;;;;;;;21.67;10.80;;;12.90;93.30;;;;;;5133079;27;20186;-70
2022/11/05 00:50:23;;;;;;;20.27;12.30;;;12.90;93.40;;;;;;5132971;27;20193;-70
2022/11/05 00:52:58;;;;;;;19.40;12.73;;;12.80;93.70;;;;;;5133010;27;20208;-70
2022/11/05 00:55:29;;;;;;;16.70;10.97;;;12.80;94.10;;;;;;5119766;27;20202;-70
2022/11/05 00:57:58;;;;;;;20.60;11.80;;;12.80;94.50;;;;;;5129828;28;20185;-73
2022/11/05 01:00:28;;;;;;;21.37;11.83;;;12.70;94.80;;;;;;5113885;28;20237;-72
2022/11/05 01:03:01;;;;;;;19.77;12.87;;;12.80;94.90;;;;;;5132888;28;20223;-71
2022/11/05 01:05:32;;;;;;;16.63;12.13;;;12.80;95.00;;;;;;5132711;27;20746;-71
2022/11/05 01:08:01;;;;;;;19.27;11.87;;;12.80;95.20;;;;;;5131512;28;20221;-72
2022/11/05 01:10:30;;;;;;;16.70;12.10;;;12.70;95.50;;;;;;5132782;27;20204;-71
2022/11/05 01:12:59;;;;;;;20.50;12.70;;;12.80;95.60;;;;;;5132813;27;20193;-71
2022/11/05 01:15:27;;;;;;;16.20;12.43;;;12.80;95.70;;;;;;5132510;27;20201;-73
2022/11/05 01:17:56;;;;;;;20.43;13.37;;;12.80;95.90;;;;;;5133058;27;20216;-70
2022/11/05 01:20:24;;;;;;;20.20;13.73;;;12.80;96.10;;;;;;5133338;27;20315;-70
2022/11/05 01:22:54;;;;;;;19.43;12.37;;;12.70;96.30;;;;;;5136967;27;20218;-69
2022/11/05 01:25:22;;;;;;;20.83;13.30;;;12.80;96.40;;;;;;5135653;27;20205;-71
2022/11/05 01:27:50;;;;;;;21.30;12.53;;;12.70;96.50;;;;;;5137059;27;20197;-71
2022/11/05 01:30:19;;;;;;;18.77;12.57;;;12.70;96.60;;;;;;5125989;27;20536;-70
2022/11/05 01:32:47;;;;;;;22.50;13.37;;;12.70;96.90;;;;;;5134412;27;20193;-71
2022/11/05 01:35:17;;;;;;;22.50;13.70;;;12.70;97.20;;;;;;5136646;27;20205;-70
2022/11/05 01:37:46;;;;;;;22.83;13.87;;;12.70;97.50;;;;;;5136467;27;20280;-71
2022/11/05 01:40:22;;;;;;;22.83;13.13;;;12.60;97.80;;;;;;5135928;27;20195;-68
2022/11/05 01:42:51;;;;;;;18.73;12.23;;;12.60;98.00;;;;;;5131107;27;20218;-71
2022/11/05 01:45:22;;;;;;;20.13;14.13;;;12.60;98.10;;;;;;5129028;27;20210;-69
2022/11/05 01:48:04;;;;;;;21.23;14.60;;;12.60;98.20;;;;;;5136115;27;20193;-70
2022/11/05 01:50:43;;;;;;;22.03;13.03;;;12.60;98.40;;;;;;5136265;27;20631;-69
2022/11/05 01:53:19;;;;;;;25.73;15.50;;;12.60;98.60;;;;;;5136017;27;20205;-70
2022/11/05 01:55:57;;;;;;;20.90;13.57;;;12.60;98.70;;;;;;5122428;27;20254;-71
2022/11/05 01:58:33;;;;;;;25.97;15.13;;;12.50;98.80;;;;;;5126736;27;20542;-68
2022/11/05 02:01:02;;;;;;;29.03;15.83;;;12.50;99.10;;;;;;5120199;27;20225;-68
2022/11/05 02:03:30;;;;;;;23.80;15.57;;;12.50;99.40;;;;;;5133830;27;20634;-69
2022/11/05 02:06:02;;;;;;;25.37;16.17;;;12.40;99.60;;;;;;5135794;27;20194;-69
2022/11/05 02:08:48;;;;;;;17.87;13.87;;;12.40;99.80;;;;;;5136154;27;20236;-71
2022/11/05 02:11:20;;;;;;;23.03;14.97;;;12.40;99.90;;;;;;5135278;27;20205;-71
2022/11/05 02:13:49;;;;;;;23.30;15.80;;;12.40;99.90;;;;;;5136135;27;20206;-69
2022/11/05 02:16:27;;;;;;;21.03;15.57;;;12.50;99.90;;;;;;5135771;27;20191;-68
2022/11/05 02:19:00;;;;;;;25.77;16.77;;;12.50;99.90;;;;;;5135447;27;20240;-68
2022/11/05 02:21:57;;;;;;;22.60;15.87;;;12.40;99.90;;;;;;5136115;27;20287;-71
2022/11/05 02:25:02;;;;;;;24.97;15.60;;;12.40;99.90;;;;;;5126280;27;20254;-69
2022/11/05 02:28:05;;;;;;;21.63;17.10;;;12.40;99.90;;;;;;5114912;28;20206;-70
2022/11/05 02:30:44;;;;;;;25.33;17.10;;;12.30;99.90;;;;;;5115069;28;20194;-69
2022/11/05 02:33:30;;;;;;;27.17;17.57;;;12.30;99.90;;;;;;5114588;28;20199;-69
2022/11/05 02:36:20;;;;;;;21.50;16.50;;;12.40;99.90;;;;;;5114868;28;20731;-69
2022/11/05 02:38:58;;;;;;;23.80;17.63;;;12.30;99.90;;;;;;5114686;28;20565;-70
2022/11/05 02:41:34;;;;;;;24.63;16.77;;;12.30;99.90;;;;;;5114963;28;20251;-70
2022/11/05 02:44:13;;;;;;;24.03;18.23;;;12.30;99.90;;;;;;5115686;28;20230;-70
2022/11/05 02:46:48;;;;;;;22.70;17.40;;;12.30;99.90;;;;;;5115693;28;20653;-69
2022/11/05 02:49:26;;;;;;;24.90;17.73;;;12.30;99.90;;;;;;5115692;28;20214;-69
2022/11/05 02:51:58;;;;;;;20.10;16.73;;;12.30;99.90;;;;;;5115695;28;20288;-70
2022/11/05 02:54:32;;;;;;;23.07;17.03;;;12.30;99.90;;;;;;5115916;28;20301;-70
2022/11/05 02:57:03;;;;;;;23.37;17.77;;;12.40;99.90;;;;;;5115657;27;20609;-68
2022/11/05 02:59:32;;;;;;;24.97;17.80;;;12.40;99.90;;;;;;5115385;28;20253;-69
2022/11/05 03:02:03;;;;;;;24.37;18.07;;;12.40;99.90;;;;;;5119300;27;20676;-70
2022/11/05 03:04:32;;;;;;;22.13;17.13;;;12.40;99.90;;;;;;5117737;27;20560;-69
2022/11/05 03:07:18;;;;;;;26.23;17.80;;;12.40;99.90;;;;;;5134398;27;20257;-69
2022/11/05 03:10:22;;;;;;;24.30;18.13;;;12.40;99.90;;;;;;5134584;27;20205;-69
2022/11/05 03:13:02;;;;;;;21.30;17.00;;;12.40;99.90;;;;;;5052482;28;20207;-71
2022/11/05 03:15:46;;;;;;;24.20;17.13;;;12.40;99.90;;;;;;5052438;28;20586;-70
2022/11/05 03:18:25;;;;;;;23.07;17.07;;;12.40;99.90;;;;;;5052582;28;20736;-70
2022/11/05 03:21:01;;;;;;;25.10;17.27;;;12.40;99.90;;;;;;5052422;28;20200;-71
2022/11/05 03:23:36;;;;;;;20.73;16.47;;;12.40;99.90;;;;;;5052317;28;20878;-69
2022/11/05 03:26:10;;;;;;;26.23;18.43;;;12.40;99.90;;;;;;5052704;28;20294;-69
2022/11/05 03:28:42;;;;;;;19.23;16.23;;;12.40;99.90;;;;;;5052065;28;20705;-70
2022/11/05 03:31:14;;;;;;;23.30;16.77;;;12.40;99.90;;;;;;5052040;28;20238;-70
2022/11/05 03:33:45;;;;;;;25.57;17.33;;;12.40;99.90;;;;;;5051979;28;20649;-70
2022/11/05 03:36:22;;;;;;;23.77;18.30;;;12.40;99.90;;;;;;5052031;28;20207;-70
2022/11/05 03:38:54;;;;;;;29.60;17.87;;;12.40;99.90;;;;;;5052093;28;20298;-71
2022/11/05 03:41:25;;;;;;;29.27;18.53;;;12.40;99.90;;;;;;5052097;28;20204;-70
2022/11/05 03:43:58;;;;;;;21.40;16.10;;;12.40;99.90;;;;;;5051076;28;20258;-69
2022/11/05 03:46:30;;;;;;;24.77;17.63;;;12.40;99.90;;;;;;5051971;28;20732;-70
2022/11/05 03:49:02;;;;;;;21.30;17.07;;;12.40;99.90;;;;;;5065175;27;20255;-69
2022/11/05 03:51:41;;;;;;;21.13;17.37;;;12.40;99.90;;;;;;5135053;27;20198;-69
2022/11/05 03:54:10;;;;;;;27.17;16.63;;;12.40;99.90;;;;;;5135055;27;20637;-72
2022/11/05 03:56:44;;;;;;;21.23;16.93;;;12.40;99.90;;;;;;5135108;27;20205;-69
2022/11/05 03:59:13;;;;;;;24.60;17.23;;;12.40;99.90;;;;;;5134400;27;20264;-69
2022/11/05 04:01:42;;;;;;;20.03;17.07;;;12.40;99.90;;;;;;5134663;27;20659;-72
2022/11/05 04:04:12;;;;;;;23.47;17.67;;;12.40;99.90;;;;;;5134703;27;20207;-72
2022/11/05 04:14:57;;;;;;;25.53;16.83;;;12.40;99.90;;;;;;5134671;27;20209;-70
2022/11/05 04:17:25;;;;;;;20.40;16.43;;;12.40;99.90;;;;;;5134713;27;20627;-69
2022/11/05 04:25:34;;;;;;;23.63;15.60;;;12.40;99.90;;;;;;5091456;28;20271;-69
2022/11/05 04:28:03;;;;;;;19.83;16.73;;;12.30;99.90;;;;;;5091486;28;20291;-69
2022/11/05 04:30:30;;;;;;;20.87;16.83;;;12.30;99.90;;;;;;5091425;28;20535;-69
2022/11/05 04:33:04;;;;;;;19.03;15.30;;;12.30;99.90;;;;;;5091197;28;20206;-69
2022/11/05 04:35:35;;;;;;;23.43;16.90;;;12.30;99.90;;;;;;5091317;28;20535;-68
2022/11/05 04:38:04;;;;;;;19.43;15.37;;;12.30;99.90;;;;;;5082463;28;20669;-70
2022/11/05 04:40:33;;;;;;;23.00;17.00;;;12.40;99.90;;;;;;5079853;28;20212;-69
2022/11/05 04:43:02;;;;;;;21.47;16.33;;;12.30;99.90;;;;;;5070898;28;20729;-70
2022/11/05 04:45:33;;;;;;;22.27;16.63;;;12.40;99.90;;;;;;5070631;28;20355;-70
2022/11/05 04:48:01;;;;;;;20.00;15.80;;;12.30;99.90;;;;;;5070853;28;20548;-70
2022/11/05 04:50:30;;;;;;;18.83;15.70;;;12.30;99.90;;;;;;5070892;28;20206;-70
2022/11/05 04:53:00;;;;;;;18.97;16.03;;;12.30;99.90;;;;;;5070891;28;20206;-69
2022/11/05 04:55:29;;;;;;;20.50;15.57;;;12.40;99.90;;;;;;5070510;28;20213;-70
2022/11/05 04:57:57;;;;;;;17.73;15.13;;;12.40;99.90;;;;;;5079607;28;20205;-70
2022/11/05 05:00:26;;;;;;;18.93;15.37;;;12.40;99.90;;;;;;5113026;28;20238;-70
2022/11/05 05:02:54;;;;;;;17.07;13.73;;;12.40;99.90;;;;;;5113583;28;20216;-71
2022/11/05 05:05:22;;;;;;;17.10;14.33;;;12.40;99.90;;;;;;5113308;28;20226;-71
2022/11/05 05:07:51;;;;;;;17.40;15.00;;;12.50;99.90;;;;;;5113225;28;20199;-73
2022/11/05 05:10:21;;;;;;;19.30;14.90;;;12.50;99.90;;;;;;5124306;28;20198;-70
2022/11/05 05:12:49;;;;;;;18.70;15.20;;;12.50;99.90;;;;;;5120702;27;20202;-70
2022/11/05 05:15:17;;;;;;;17.23;14.03;;;12.50;99.90;;;;;;5113408;28;20221;-70
2022/11/05 05:17:50;;;;;;;17.03;13.80;;;12.50;99.90;;;;;;5113428;28;20572;-70
2022/11/05 05:23:04;;;;;;;18.53;13.37;;;12.50;99.90;;;;;;5113188;28;20205;-70
2022/11/05 05:25:34;;;;;;;18.10;14.27;;;12.50;99.90;;;;;;5113574;28;20218;-70
2022/11/05 05:28:02;;;;;;;18.53;15.23;;;12.50;99.90;;;;;;5113364;28;20234;-70
2022/11/05 05:30:31;;;;;;;16.23;13.17;;;12.50;99.90;;;;;;5115789;28;20197;-69
2022/11/05 05:33:02;;;;;;;17.03;14.20;;;12.50;99.90;;;;;;5116007;28;20313;-70
2022/11/05 05:35:30;;;;;;;16.43;14.07;;;12.50;99.90;;;;;;5127724;28;20197;-71
2022/11/05 05:37:59;;;;;;;20.60;18.33;;;12.50;99.90;;;;;;5133544;27;20288;-70
2022/11/05 05:40:27;;;;;;;19.73;17.47;;;12.50;99.90;;;;;;5133700;27;20193;-72
2022/11/05 05:42:57;;;;;;;19.40;16.13;;;12.50;99.90;;;;;;5133560;28;20537;-69
2022/11/05 05:45:25;;;;;;;17.87;13.67;;;12.60;99.90;;;;;;5133484;28;20226;-72
2022/11/05 05:47:55;;;;;;;14.73;13.17;;;12.50;99.90;;;;;;5133485;27;20611;-69
2022/11/05 05:50:23;;;;;;;15.57;13.03;;;12.50;99.90;;;;;;5133461;27;20606;-71
2022/11/05 05:52:52;;;;;;;17.17;13.90;;;12.60;99.90;;;;;;5133286;28;20670;-72
2022/11/05 05:55:20;;;;;;;16.90;13.77;;;12.60;99.90;;;;;;5133424;27;20190;-69
2022/11/05 05:57:49;;;;;;;16.77;13.70;;;12.50;99.90;;;;;;5133319;28;20663;-69
2022/11/05 06:00:19;;;;;;;17.93;13.80;;;12.50;99.90;;;;;;5133146;27;20234;-70
2022/11/05 06:02:47;;;;;;;16.80;14.17;;;12.50;99.90;;;;;;5133242;28;20206;-69
2022/11/05 06:05:16;;;;;;;15.47;13.20;;;12.60;99.90;;;;;;5127453;27;20246;-70
2022/11/05 06:07:44;;;;;;;18.40;14.47;;;12.60;99.90;;;;;;5121137;27;20195;-69
2022/11/05 06:10:12;;;;;;;17.47;14.17;;;12.50;99.90;;;;;;5136767;27;20186;-69
2022/11/05 06:12:41;;;;;;;17.43;14.20;;;12.50;99.90;;;;;;5136925;27;20194;-70
2022/11/05 06:15:10;;;;;;;17.10;15.13;;;12.50;99.90;;;;;;5137218;27;20206;-69
2022/11/05 06:17:39;;;;;;;18.23;15.30;;;12.50;99.90;;;;;;5137487;27;20205;-70
2022/11/05 06:20:09;;;;;;;20.27;15.87;;;12.50;99.90;;;;;;5136765;27;20205;-70
2022/11/05 06:22:38;;;;;;;22.50;16.17;;;12.50;99.90;;;;;;5136971;27;20407;-69
2022/11/05 06:25:08;;;;;;;20.07;17.30;;;12.60;99.90;;;;;;5136945;27;20210;-69
2022/11/05 06:27:36;;;;;;;20.03;16.50;;;12.60;99.90;;;;;;5136716;27;20201;-68
2022/11/05 06:30:05;;;;;;;19.67;15.67;;;12.60;99.90;;;;;;5136279;27;20223;-68
2022/11/05 06:32:34;;;;;;;21.67;16.03;;;12.60;99.90;;;;;;5124542;27;20194;-70
2022/11/05 06:35:04;;;;;;;19.23;15.83;;;12.60;99.90;;;;;;5116005;28;20207;-69
2022/11/05 06:37:33;;;;;;;18.43;16.47;;;12.60;99.90;;;;;;5115931;28;20194;-71
2022/11/05 06:40:01;;;;;;;18.73;15.27;;;12.60;99.90;;;;;;5116238;28;20278;-70
2022/11/05 06:42:30;;;;;;;14.87;13.33;;;12.60;99.90;;;;;;5116186;28;20191;-71
2022/11/05 06:44:58;;;;;;;12.73;11.43;;;12.70;99.90;;;;;;5116568;28;20201;-72
2022/11/05 06:47:27;;;;;;;12.73;11.53;;;12.70;99.90;;;;;;5116076;28;20195;-72
2022/11/05 06:49:56;;;;;;;15.73;12.10;;;12.70;99.90;;;;;;5115651;28;20221;-71
2022/11/05 06:52:30;;;;;;;107.97;59.17;;;12.70;99.90;;;;;;5123143;27;20198;-73
2022/11/05 06:54:58;;;;;;;63.57;40.03;;;12.70;99.90;;;;;;5120680;27;20275;-72
2022/11/05 06:57:26;;;;;;;19.23;16.03;;;12.80;99.90;;;;;;5129082;27;20194;-69
2022/11/05 06:59:55;;;;;;;16.70;14.90;;;12.80;99.90;;;;;;5124028;27;20728;-68
2022/11/05 07:02:28;;;;;;;35.60;25.60;;;12.70;99.90;;;;;;5128392;27;20200;-70
2022/11/05 07:04:56;;;;;;;108.03;62.43;;;12.70;99.90;;;;;;5135573;27;20299;-72
2022/11/05 07:07:26;;;;;;;39.57;24.87;;;12.70;99.90;;;;;;5135120;27;20225;-70
2022/11/05 07:09:54;;;;;;;55.60;34.37;;;12.70;99.90;;;;;;5134299;27;20192;-69
2022/11/05 07:12:23;;;;;;;293.17;155.93;;;12.70;99.90;;;;;;5135150;27;20671;-69
2022/11/05 07:14:51;;;;;;;107.67;63.37;;;12.70;99.90;;;;;;5135688;27;20196;-69
2022/11/05 07:17:19;;;;;;;25.17;18.20;;;12.80;99.90;;;;;;5134172;27;20573;-68
2022/11/05 07:19:48;;;;;;;29.17;19.80;;;12.70;99.90;;;;;;5135016;27;20229;-71
2022/11/05 07:22:16;;;;;;;16.23;12.13;;;12.70;99.90;;;;;;5135700;27;20194;-69
2022/11/05 07:24:48;;;;;;;19.17;14.37;;;12.70;99.90;;;;;;5135703;27;20197;-71
2022/11/05 07:27:16;;;;;;;16.27;12.67;;;12.70;99.90;;;;;;5134758;27;20296;-69
2022/11/05 07:29:45;;;;;;;11.60;10.40;;;12.70;99.90;;;;;;5135439;27;20202;-69
2022/11/05 07:32:13;;;;;;;14.73;12.23;;;12.70;99.90;;;;;;5127443;27;20617;-68
2022/11/05 07:34:41;;;;;;;31.27;21.57;;;12.60;99.90;;;;;;5130890;27;20223;-70
2022/11/05 07:37:10;;;;;;;15.27;12.67;;;12.60;99.90;;;;;;5113250;28;20217;-70
2022/11/05 07:39:38;;;;;;;14.10;11.03;;;12.70;99.90;;;;;;5114519;28;20674;-70
2022/11/05 07:42:12;;;;;;;13.90;11.70;;;12.70;99.90;;;;;;5114536;28;20186;-71
2022/11/05 07:44:41;;;;;;;13.23;10.83;;;12.70;99.90;;;;;;5114821;28;20202;-71
2022/11/05 07:47:09;;;;;;;12.57;11.23;;;12.70;99.90;;;;;;5114543;28;20225;-71
2022/11/05 07:49:38;;;;;;;10.63;9.53;;;12.80;99.90;;;;;;5124471;27;20207;-70
2022/11/05 07:52:06;;;;;;;10.33;9.33;;;12.80;99.90;;;;;;5135090;27;20191;-68
2022/11/05 10:49:51;;;;;;;4.33;2.67;;;21.30;62.80;;;;;;5089951;27;20543;-75
2022/11/05 10:52:22;;;;;;;4.60;2.43;;;21.20;56.60;;;;;;5090747;28;20203;-75
2022/11/05 10:54:53;;;;;;;5.80;3.23;;;20.00;56.70;;;;;;5090760;28;20608;-76
2022/11/05 10:57:34;;;;;;;8.70;5.43;;;19.10;58.80;;;;;;5089139;28;20732;-69
2022/11/05 11:00:23;;;;;;;9.30;4.83;;;18.50;60.70;;;;;;5090399;28;20192;-81
2022/11/05 11:02:54;;;;;;;8.93;3.50;;;17.90;62.30;;;;;;5090657;28;20716;-74
2022/11/05 11:05:28;;;;;;;7.60;4.20;;;17.40;64.10;;;;;;5089655;28;20295;-80
2022/11/05 11:08:03;;;;;;;8.87;3.37;;;16.90;66.10;;;;;;5090532;28;20237;-80
2022/11/05 11:10:37;;;;;;;6.93;2.63;;;16.60;68.80;;;;;;5092453;28;20600;-80
2022/11/05 11:13:06;;;;;;;5.80;3.10;;;16.30;71.00;;;;;;5090280;28;20200;-70
2022/11/05 11:15:36;;;;;;;27.20;15.90;;;16.10;72.70;;;;;;5090039;28;20238;-70
2022/11/05 11:18:28;;;;;;;4.97;3.70;;;15.90;74.40;;;;;;5089899;28;20193;-69
2022/11/05 11:21:14;;;;;;;4.83;3.27;;;15.70;76.70;;;;;;5089347;28;20204;-76
2022/11/05 11:23:43;;;;;;;5.77;3.47;;;15.60;78.60;;;;;;5089682;28;20202;-69
2022/11/05 11:26:13;;;;;;;3.33;3.00;;;15.70;79.70;;;;;;5080909;28;20201;-71
2022/11/05 11:28:46;;;;;;;3.90;2.80;;;15.90;80.10;;;;;;5080091;28;20220;-72
2022/11/05 11:31:20;;;;;;;5.90;2.93;;;16.10;79.60;;;;;;5069214;28;20201;-70
2022/11/05 11:33:52;;;;;;;5.50;3.67;;;16.10;79.20;;;;;;5069761;28;20204;-70
2022/11/05 11:36:33;;;;;;;3.00;2.70;;;16.10;79.40;;;;;;5069405;28;20209;-71
2022/11/05 11:39:04;;;;;;;6.13;2.63;;;16.10;79.50;;;;;;5069587;28;20221;-73
2022/11/05 11:41:35;;;;;;;7.63;6.10;;;16.10;79.10;;;;;;5069272;28;20653;-72
2022/11/05 11:44:10;;;;;;;7.10;4.37;;;16.10;79.00;;;;;;5069657;28;20292;-77
2022/11/05 11:46:39;;;;;;;4.07;2.87;;;16.10;79.30;;;;;;5069209;28;20201;-72
2022/11/05 11:49:32;;;;;;;5.00;3.47;;;16.00;79.20;;;;;;5080748;28;20266;-78
2022/11/05 11:52:10;;;;;;;4.30;3.20;;;15.90;79.40;;;;;;5089132;28;20197;-79
2022/11/05 11:54:38;;;;;;;5.23;3.37;;;15.90;79.90;;;;;;5089869;28;20674;-74
2022/11/05 11:57:20;;;;;;;6.07;4.10;;;15.90;79.60;;;;;;5089200;28;20201;-76
2022/11/05 11:59:49;;;;;;;6.30;4.07;;;15.80;80.30;;;;;;5081593;28;20643;-78
2022/11/05 12:02:56;;;;;;;7.30;3.50;;;15.70;81.50;;;;;;5074724;28;20287;-79
2022/11/05 12:05:44;;;;;;;9.30;3.23;;;15.60;82.20;;;;;;5059300;28;20205;-74
2022/11/05 12:08:35;;;;;;;6.97;3.17;;;15.60;82.80;;;;;;5078760;28;20247;-75
2022/11/05 12:11:08;;;;;;;5.40;3.83;;;15.50;82.80;;;;;;5073809;28;20193;-73
2022/11/05 12:13:59;;;;;;;8.10;3.70;;;15.50;83.60;;;;;;5076462;28;20670;-84
2022/11/05 12:16:52;;;;;;;14.57;6.27;;;15.40;84.50;;;;;;5076273;28;20200;-79
2022/11/05 12:19:31;;;;;;;5.37;3.23;;;15.30;85.90;;;;;;5076620;28;20209;-83
2022/11/05 12:22:05;;;;;;;4.93;3.80;;;15.20;86.90;;;;;;5075374;28;20238;-79
2022/11/05 12:25:04;;;;;;;7.63;4.20;;;15.20;87.60;;;;;;5075893;28;20192;-68
2022/11/05 12:27:55;;;;;;;8.47;5.10;;;15.20;88.20;;;;;;5075954;28;20210;-77
2022/11/05 12:30:23;;;;;;;6.53;4.30;;;15.30;88.30;;;;;;5076305;28;20232;-79
2022/11/05 12:33:10;;;;;;;9.53;5.03;;;15.20;88.40;;;;;;5077017;28;20236;-81
2022/11/05 12:35:46;;;;;;;8.87;4.57;;;15.20;88.70;;;;;;5073576;28;20201;-81
2022/11/05 12:38:30;;;;;;;11.30;5.33;;;15.30;89.10;;;;;;5075949;28;20279;-73
2022/11/05 12:41:11;;;;;;;12.13;4.03;;;15.30;89.30;;;;;;5075235;28;20225;-84
2022/11/05 12:43:52;;;;;;;8.33;4.40;;;15.20;88.10;;;;;;5076066;28;20193;-82
2022/11/05 12:46:30;;;;;;;8.87;4.33;;;15.10;88.50;;;;;;5080068;28;20281;-73
2022/11/05 12:49:24;;;;;;;12.00;5.07;;;15.10;89.60;;;;;;5086941;28;20239;-70
2022/11/05 12:52:10;;;;;;;9.13;5.10;;;15.00;90.30;;;;;;5085139;28;20208;-71
2022/11/05 12:54:58;;;;;;;9.70;3.97;;;14.90;90.60;;;;;;5079033;28;20221;-77
2022/11/05 12:57:30;;;;;;;12.57;3.97;;;14.80;90.70;;;;;;5063546;28;20212;-81
2022/11/05 13:00:07;;;;;;;11.30;4.63;;;14.70;91.40;;;;;;5055375;28;20214;-81
2022/11/05 13:02:41;;;;;;;13.50;4.60;;;14.60;92.10;;;;;;5055325;28;20204;-79
2022/11/05 13:05:16;;;;;;;6.13;3.40;;;14.50;92.80;;;;;;5061666;28;20199;-82
2022/11/05 13:07:52;;;;;;;11.77;3.93;;;14.40;93.20;;;;;;5075514;28;20262;-76
2022/11/05 13:10:28;;;;;;;10.87;5.00;;;14.30;93.40;;;;;;5075062;28;20274;-82
2022/11/05 13:13:06;;;;;;;13.57;5.57;;;14.20;93.90;;;;;;5074836;28;20196;-82
2022/11/05 13:15:39;;;;;;;12.60;5.33;;;14.20;94.30;;;;;;5075371;28;20235;-79
2022/11/05 13:18:17;;;;;;;9.57;3.83;;;14.20;94.60;;;;;;5075458;28;20250;-81
2022/11/05 13:20:50;;;;;;;7.37;4.17;;;14.30;94.80;;;;;;5074135;28;20206;-76
2022/11/05 13:23:27;;;;;;;9.17;4.10;;;14.30;94.80;;;;;;5074621;28;20306;-78
2022/11/05 13:26:02;;;;;;;7.10;3.33;;;14.30;94.60;;;;;;5075225;28;20193;-80
2022/11/05 13:28:39;;;;;;;12.57;4.97;;;14.40;94.60;;;;;;5075787;28;20665;-78
2022/11/05 13:31:14;;;;;;;11.17;5.20;;;14.40;94.40;;;;;;5066520;28;20275;-70
2022/11/05 13:33:46;;;;;;;32.93;15.93;;;14.40;94.20;;;;;;5061125;28;20202;-70
2022/11/05 13:39:15;;;;;;;9.47;4.27;;;14.50;94.00;;;;;;5074299;28;20531;-70
2022/11/05 13:42:12;;;;;;;6.23;3.50;;;14.60;93.40;;;;;;5074493;28;20219;-82
2022/11/05 13:45:22;;;;;;;8.33;4.23;;;14.50;93.10;;;;;;5074208;28;20218;-84
2022/11/05 13:48:06;;;;;;;8.50;3.67;;;14.40;92.70;;;;;;5074082;28;20334;-81
2022/11/05 13:51:00;;;;;;;10.67;4.67;;;14.40;92.90;;;;;;5073556;28;20230;-75
2022/11/05 13:53:47;;;;;;;11.07;4.60;;;14.40;92.50;;;;;;5102843;22;20330;-83
2022/11/05 13:56:27;;;;;;;12.40;5.10;;;14.30;92.10;;;;;;5016308;28;20297;-79
2022/11/05 13:59:38;;;;;;;10.60;4.43;;;14.30;91.80;;;;;;5014898;28;20195;-82
2022/11/05 14:02:17;;;;;;;10.67;3.60;;;14.30;91.70;;;;;;4972871;28;20231;-79
2022/11/05 14:04:47;;;;;;;10.67;3.40;;;14.40;91.60;;;;;;4965290;28;20247;-82
2022/11/05 14:07:19;;;;;;;7.77;3.00;;;14.30;91.30;;;;;;4973019;28;20679;-83
2022/11/05 14:09:55;;;;;;;10.83;3.70;;;14.40;91.20;;;;;;4973069;28;20255;-82
2022/11/05 14:12:27;;;;;;;12.97;3.53;;;14.30;91.20;;;;;;4956888;28;20255;-80
2022/11/05 14:15:01;;;;;;;9.87;4.47;;;14.20;91.10;;;;;;4965335;28;20320;-72
2022/11/05 14:17:55;;;;;;;9.73;4.37;;;14.30;91.30;;;;;;4954384;29;20226;-79
2022/11/05 14:20:42;;;;;;;11.70;4.07;;;14.20;91.00;;;;;;4955555;29;20229;-84
2022/11/05 14:23:38;;;;;;;8.30;3.57;;;14.20;91.00;;;;;;4958408;28;20283;-82
2022/11/05 14:26:19;;;;;;;10.70;3.80;;;14.20;91.10;;;;;;4971058;28;20215;-75
2022/11/05 14:29:06;;;;;;;9.87;4.40;;;14.20;91.30;;;;;;4998120;28;20307;-72
2022/11/05 14:31:42;;;;;;;14.60;5.57;;;14.20;91.40;;;;;;4992953;28;20210;-68
2022/11/05 14:34:54;;;;;;;10.20;4.13;;;14.10;91.70;;;;;;4993135;28;20207;-82
2022/11/05 14:37:29;;;;;;;36.27;18.10;;;14.10;92.00;;;;;;4992550;28;20199;-84
2022/11/05 14:40:19;;;;;;;13.37;4.77;;;14.00;92.30;;;;;;5033207;28;20209;-77
2022/11/05 14:42:51;;;;;;;13.53;4.40;;;13.90;92.60;;;;;;5033606;28;20274;-74
2022/11/05 14:45:30;;;;;;;10.30;3.83;;;13.90;92.90;;;;;;5032895;28;20197;-70
2022/11/05 14:48:00;;;;;;;14.27;5.50;;;13.80;93.20;;;;;;5033119;28;20727;-74
2022/11/05 14:50:39;;;;;;;11.77;4.60;;;13.70;93.50;;;;;;5034322;28;20327;-69
2022/11/05 14:53:26;;;;;;;13.73;3.77;;;13.70;93.80;;;;;;5024872;28;20303;-77
2022/11/05 14:56:01;;;;;;;7.17;4.57;;;13.60;94.20;;;;;;5012802;28;20280;-78
2022/11/05 14:58:33;;;;;;;11.90;4.60;;;13.50;94.40;;;;;;5011477;28;20296;-81
2022/11/05 15:01:03;;;;;;;10.77;4.87;;;13.50;94.60;;;;;;5005254;28;20215;-84
2022/11/05 15:04:03;;;;;;;13.37;4.87;;;13.40;94.80;;;;;;5013687;28;20194;-86
2022/11/05 15:06:35;;;;;;;13.03;5.23;;;13.40;94.90;;;;;;4973681;28;20212;-82
2022/11/05 15:09:16;;;;;;;20.70;6.00;;;13.40;95.10;;;;;;4974777;28;20211;-74
2022/11/05 15:12:16;;;;;;;12.10;5.40;;;13.30;95.20;;;;;;4962417;28;20239;-69
2022/11/05 15:14:55;;;;;;;15.40;7.20;;;13.30;95.30;;;;;;4971519;28;20226;-77
2022/11/05 15:17:28;;;;;;;15.37;7.83;;;13.20;95.50;;;;;;4963558;28;20212;-82
2022/11/05 15:20:07;;;;;;;15.10;5.77;;;13.20;95.60;;;;;;4960030;28;20203;-81
2022/11/05 15:22:40;;;;;;;11.90;6.17;;;13.20;95.70;;;;;;4973081;28;20235;-84
2022/11/05 15:25:17;;;;;;;16.67;6.07;;;13.20;95.80;;;;;;4972518;28;20267;-84
2022/11/05 15:27:56;;;;;;;16.87;5.87;;;13.10;95.90;;;;;;4973002;28;20235;-82
2022/11/05 15:30:25;;;;;;;11.47;5.23;;;13.10;96.00;;;;;;4971017;28;20251;-83
2022/11/05 15:32:53;;;;;;;15.53;5.93;;;13.10;96.00;;;;;;4971840;28;20231;-79
2022/11/05 15:35:26;;;;;;;19.10;5.30;;;13.00;96.10;;;;;;4973425;28;20203;-88
2022/11/05 15:37:57;;;;;;;15.03;4.67;;;13.00;96.30;;;;;;4975426;28;20256;-83
2022/11/05 15:40:32;;;;;;;13.80;5.27;;;13.00;96.40;;;;;;4974437;28;20310;-79
2022/11/05 15:43:24;;;;;;;16.53;7.87;;;13.00;96.50;;;;;;4985697;28;20209;-84
2022/11/05 15:46:04;;;;;;;15.03;7.77;;;13.00;96.70;;;;;;4929573;28;20217;-79
2022/11/05 15:48:35;;;;;;;12.10;5.67;;;13.00;96.70;;;;;;4935319;29;20235;-79
2022/11/05 15:51:04;;;;;;;12.57;5.80;;;13.00;96.60;;;;;;4935352;29;20609;-79
2022/11/05 15:53:37;;;;;;;14.90;5.17;;;13.00;97.00;;;;;;4935150;29;20288;-80
2022/11/05 15:56:29;;;;;;;15.03;5.73;;;13.00;96.70;;;;;;4935134;29;20209;-79
2022/11/05 15:59:02;;;;;;;13.87;6.53;;;13.00;96.70;;;;;;4935201;29;20236;-77
2022/11/05 16:01:34;;;;;;;18.37;6.83;;;13.00;96.60;;;;;;4919756;29;20213;-76
2022/11/05 16:04:12;;;;;;;14.63;8.17;;;13.00;96.60;;;;;;4919178;29;20224;-79
2022/11/05 16:06:44;;;;;;;17.70;8.80;;;13.00;96.50;;;;;;4934845;29;20678;-78
2022/11/05 16:09:25;;;;;;;15.77;8.03;;;12.90;96.50;;;;;;4935338;29;20648;-70
2022/11/05 16:12:12;;;;;;;19.93;9.13;;;12.90;96.60;;;;;;4922360;29;20327;-76
2022/11/05 16:14:42;;;;;;;21.13;8.37;;;12.80;96.60;;;;;;4916646;29;20572;-78
2022/11/05 16:17:18;;;;;;;21.20;9.03;;;12.80;96.70;;;;;;4934610;29;20654;-81
2022/11/05 16:19:46;;;;;;;15.13;8.17;;;12.80;96.80;;;;;;4935109;29;20681;-82
2022/11/05 16:22:15;;;;;;;14.23;9.17;;;12.80;96.90;;;;;;4965651;28;20294;-80
2022/11/05 16:24:46;;;;;;;19.73;9.67;;;12.70;96.90;;;;;;5014843;28;20198;-78
2022/11/05 16:27:16;;;;;;;21.30;9.23;;;12.70;96.90;;;;;;5014013;28;20557;-78
2022/11/05 16:29:52;;;;;;;17.77;9.67;;;12.70;97.00;;;;;;5014759;28;20209;-80
2022/11/05 16:32:24;;;;;;;15.63;8.67;;;12.60;97.30;;;;;;5014526;28;20201;-79
2022/11/05 16:34:59;;;;;;;19.17;9.33;;;12.60;97.40;;;;;;5014675;28;20193;-79
2022/11/05 16:37:29;;;;;;;24.37;9.37;;;12.60;97.40;;;;;;5013105;28;20206;-76
2022/11/05 16:40:00;;;;;;;23.17;10.60;;;12.50;97.50;;;;;;5014331;28;20236;-77
2022/11/05 16:42:41;;;;;;;20.47;9.83;;;12.50;97.60;;;;;;5013976;28;20976;-75
2022/11/05 16:45:13;;;;;;;16.53;9.50;;;12.50;97.80;;;;;;5016204;28;20213;-73
2022/11/05 16:47:43;;;;;;;21.07;9.90;;;12.40;97.90;;;;;;5013997;28;20206;-76
2022/11/05 16:50:17;;;;;;;21.80;9.83;;;12.40;98.50;;;;;;5014480;28;20220;-80